Time;durP1;ratioP1;P1;durP2;ratioP2;P2;SDS_P1;SDS_P2;PMS_P1;PMS_P2;Temp;Humidity;BMP_temperature;BMP_pressure;BME280_temperature;BME280_humidity;BME280_pressure;Samples;Min_cycle;Max_cycle;Signal;HPM_P1;HPM_P2
2022/12/02 00:03:11;;;;;;;30.00;18.77;;;;;;;9.61;57.77;99056.09;6982328;28;20203;-84
2022/12/02 00:06:38;;;;;;;30.00;17.20;;;;;;;9.92;58.21;99151.66;7012251;28;20220;-85
2022/12/02 00:10:01;;;;;;;30.67;19.53;;;;;;;10.09;57.44;99090.34;7038146;28;20219;-86
2022/12/02 00:13:24;;;;;;;28.73;18.47;;;;;;;10.01;57.95;99138.91;7037241;28;20291;-85
2022/12/02 00:16:45;;;;;;;29.07;18.53;;;;;;;10.04;57.61;99111.63;7039595;28;20227;-84
2022/12/02 00:20:09;;;;;;;28.50;19.07;;;;;;;10.23;57.78;99119.88;7039302;28;20209;-85
2022/12/02 00:23:31;;;;;;;29.83;18.30;;;;;;;10.37;57.58;99120.78;7040290;28;20808;-84
2022/12/02 00:26:54;;;;;;;27.97;16.93;;;;;;;10.01;58.38;99134.38;7039844;28;20228;-84
2022/12/02 00:30:16;;;;;;;30.10;18.80;;;;;;;10.39;57.65;99126.84;7032029;28;20224;-84
2022/12/02 00:33:38;;;;;;;32.10;18.73;;;;;;;10.09;57.87;99101.09;6984441;28;20209;-85
2022/12/02 00:36:59;;;;;;;30.07;18.20;;;;;;;10.22;57.78;99117.38;6983422;28;20232;-84
2022/12/02 00:40:21;;;;;;;30.27;17.73;;;;;;;10.01;57.78;99107.44;6984678;28;20217;-84
2022/12/02 00:47:28;;;;;;;31.97;18.93;;;;;;;10.17;57.84;99122.50;7025667;28;20614;-84
2022/12/02 00:50:49;;;;;;;28.33;17.93;;;;;;;10.19;57.60;99115.06;7041257;28;20209;-85
2022/12/02 00:54:12;;;;;;;30.63;18.97;;;;;;;9.93;57.85;99095.97;7044849;28;20216;-85
2022/12/02 00:57:33;;;;;;;31.80;19.17;;;;;;;9.97;58.53;99108.84;7043836;28;20231;-85
2022/12/02 01:00:56;;;;;;;32.43;19.43;;;;;;;9.94;58.54;99113.78;7043416;28;20215;-85
2022/12/02 01:04:18;;;;;;;27.40;19.00;;;;;;;9.98;58.26;99115.88;7045369;28;20583;-84
2022/12/02 01:07:39;;;;;;;30.13;19.30;;;;;;;9.59;59.80;99102.06;7042872;28;20236;-85
2022/12/02 01:11:01;;;;;;;34.63;20.57;;;;;;;9.45;59.44;99057.19;7042788;28;20210;-84
2022/12/02 01:14:24;;;;;;;32.40;19.93;;;;;;;9.83;58.90;99100.81;6987594;28;20220;-84
2022/12/02 01:17:47;;;;;;;32.10;19.10;;;;;;;9.90;58.96;99072.94;7035136;28;20730;-85
2022/12/02 01:21:12;;;;;;;29.70;19.00;;;;;;;10.13;58.58;99099.66;7005767;28;20213;-84
2022/12/02 01:24:33;;;;;;;30.07;18.57;;;;;;;10.01;58.83;99082.34;6988960;28;20212;-85
2022/12/02 01:27:55;;;;;;;31.87;19.27;;;;;;;9.83;58.26;99033.50;6987769;28;20279;-85
2022/12/02 01:31:16;;;;;;;33.67;20.37;;;;;;;9.72;57.96;99026.78;7012735;28;20201;-85
2022/12/02 01:34:41;;;;;;;28.93;19.00;;;;;;;10.10;58.23;99106.28;7044328;28;20239;-85
2022/12/02 01:38:02;;;;;;;34.50;19.20;;;;;;;9.91;58.61;99090.75;6990746;28;20283;-84
2022/12/02 01:41:24;;;;;;;31.70;19.20;;;;;;;9.93;58.60;99069.84;6988737;28;20264;-84
2022/12/02 01:44:45;;;;;;;32.10;20.43;;;;;;;10.06;58.44;99079.94;6987645;28;20240;-87
2022/12/02 01:48:07;;;;;;;27.40;17.80;;;;;;;9.84;58.87;99076.41;6986695;28;20380;-84
2022/12/02 01:51:30;;;;;;;30.00;19.30;;;;;;;10.02;58.76;99089.38;6985931;28;20294;-84
2022/12/02 01:54:53;;;;;;;31.90;18.73;;;;;;;10.12;58.13;99087.22;6986294;28;20784;-85
2022/12/02 01:58:15;;;;;;;29.73;18.87;;;;;;;9.58;58.82;99032.25;6994147;28;20595;-86
2022/12/02 02:01:37;;;;;;;32.47;19.90;;;;;;;10.13;58.35;99080.81;7014149;28;20198;-85
2022/12/02 02:05:00;;;;;;;30.07;19.13;;;;;;;10.11;58.35;99080.19;7014419;28;20216;-86
2022/12/02 02:08:23;;;;;;;27.77;18.77;;;;;;;9.80;59.09;99083.19;7042766;28;20235;-84
2022/12/02 02:11:45;;;;;;;31.33;19.80;;;;;;;9.73;58.90;99051.84;7042937;28;20219;-85
2022/12/02 02:15:10;;;;;;;32.40;18.43;;;;;;;10.10;58.75;99073.13;7037907;28;20216;-85
2022/12/02 02:18:32;;;;;;;28.83;18.90;;;;;;;10.20;58.47;99074.44;6987501;28;20251;-85
2022/12/02 02:21:54;;;;;;;29.37;18.17;;;;;;;10.04;58.27;99044.28;6987529;28;20213;-86
2022/12/02 02:25:18;;;;;;;33.60;19.70;;;;;;;10.19;58.68;99050.38;6987722;28;20547;-85
2022/12/02 02:28:39;;;;;;;33.63;20.60;;;;;;;9.91;59.35;99061.13;6987161;28;20260;-84
2022/12/02 02:32:01;;;;;;;34.50;21.07;;;;;;;9.68;58.82;99001.28;7020587;28;20285;-85
2022/12/02 02:35:23;;;;;;;31.07;19.63;;;;;;;10.03;58.25;99048.81;7035320;28;20213;-85
2022/12/02 02:38:45;;;;;;;32.60;19.50;;;;;;;9.94;58.79;99060.75;6987302;28;20252;-84
2022/12/02 02:42:08;;;;;;;30.20;18.77;;;;;;;9.93;58.35;99034.00;6987735;28;20212;-85
2022/12/02 02:45:32;;;;;;;30.03;19.37;;;;;;;9.57;59.42;99006.38;6987528;28;20623;-84
2022/12/02 02:48:54;;;;;;;34.13;21.03;;;;;;;9.83;60.21;99063.13;6987512;28;20234;-85
2022/12/02 02:52:16;;;;;;;36.33;20.47;;;;;;;9.81;59.62;99054.41;6987944;28;20296;-84
2022/12/02 02:55:37;;;;;;;36.07;20.20;;;;;;;9.79;59.53;99049.22;6986812;28;20206;-83
2022/12/02 02:59:09;;;;;;;33.37;20.93;;;;;;;9.75;60.05;99049.81;6986718;28;20229;-84
2022/12/02 03:02:49;;;;;;;33.10;20.37;;;;;;;9.83;59.42;99038.88;6987893;28;20214;-85
2022/12/02 03:06:11;;;;;;;31.17;19.93;;;;;;;10.03;59.64;99045.28;6984179;28;20245;-85
2022/12/02 03:09:33;;;;;;;30.90;19.63;;;;;;;9.42;59.29;98970.63;6986538;28;20244;-85
2022/12/02 03:13:04;;;;;;;32.30;18.73;;;;;;;9.80;59.38;99017.75;6986902;28;20213;-85
2022/12/02 03:16:42;;;;;;;31.93;19.57;;;;;;;9.70;59.35;98999.22;7007849;28;20274;-85
2022/12/02 03:20:04;;;;;;;33.33;19.63;;;;;;;10.04;59.45;99039.72;7038467;28;20195;-85
2022/12/02 03:23:26;;;;;;;30.97;18.83;;;;;;;9.74;59.48;99003.19;6988301;28;20208;-85
2022/12/02 03:26:48;;;;;;;27.90;19.03;;;;;;;10.15;59.15;99031.09;6985141;28;20274;-84
2022/12/02 03:30:11;;;;;;;27.37;17.73;;;;;;;9.79;58.92;99019.59;6986551;28;20217;-85
2022/12/02 03:33:34;;;;;;;28.93;19.80;;;;;;;10.01;58.80;99023.94;7013528;28;20213;-85
2022/12/02 03:36:58;;;;;;;30.27;18.37;;;;;;;9.76;58.58;99011.94;7012004;28;20230;-85
2022/12/02 03:40:20;;;;;;;29.43;19.23;;;;;;;10.16;58.22;99031.94;7013330;28;20288;-84
2022/12/02 03:43:42;;;;;;;29.80;18.70;;;;;;;9.76;58.42;99011.09;7013525;28;20293;-84
2022/12/02 03:47:04;;;;;;;29.70;18.37;;;;;;;9.83;58.76;99030.81;6998109;28;20267;-85
2022/12/02 03:50:27;;;;;;;29.20;17.13;;;;;;;10.01;58.14;99032.00;6985777;28;20304;-84
2022/12/02 03:53:48;;;;;;;26.53;18.17;;;;;;;9.56;58.54;98977.78;6985275;28;20215;-85
2022/12/02 03:57:10;;;;;;;30.40;18.53;;;;;;;9.60;59.26;99032.88;6983613;28;20228;-85
2022/12/02 04:00:32;;;;;;;28.40;18.30;;;;;;;9.69;59.19;99027.16;6982196;28;20255;-85
2022/12/02 04:03:53;;;;;;;31.20;19.30;;;;;;;9.67;58.83;98986.16;6983630;28;20693;-85
2022/12/02 04:07:16;;;;;;;29.50;20.10;;;;;;;9.55;60.09;99005.72;7016985;28;20239;-84
2022/12/02 04:10:38;;;;;;;31.67;19.97;;;;;;;9.70;59.21;99017.25;7037713;28;20213;-85
2022/12/02 04:14:07;;;;;;;30.67;19.37;;;;;;;9.67;59.74;99010.38;7036340;28;20265;-84
2022/12/02 04:17:40;;;;;;;33.03;19.03;;;;;;;9.80;60.23;99012.38;7003424;28;20243;-85
2022/12/02 04:21:02;;;;;;;30.37;19.27;;;;;;;10.00;59.47;98986.41;6986097;28;20255;-85
2022/12/02 04:24:27;;;;;;;28.77;18.53;;;;;;;9.04;59.57;98896.63;6985842;28;20207;-84
2022/12/02 04:27:48;;;;;;;31.83;19.97;;;;;;;9.09;59.68;98916.50;6990066;28;20259;-84
2022/12/02 04:31:10;;;;;;;28.67;18.37;;;;;;;9.79;59.40;98989.13;6991034;28;20263;-84
2022/12/02 04:34:32;;;;;;;31.73;19.23;;;;;;;9.73;59.94;99001.53;6991069;28;20225;-85
2022/12/02 04:37:54;;;;;;;31.70;18.53;;;;;;;9.63;60.09;98967.91;6986659;28;20227;-84
2022/12/02 04:41:37;;;;;;;32.50;19.50;;;;;;;9.48;60.61;99002.97;6989191;28;20213;-85
2022/12/02 04:44:58;;;;;;;34.03;19.97;;;;;;;9.63;61.04;99001.03;6988918;28;20213;-84
2022/12/02 04:48:20;;;;;;;30.40;19.03;;;;;;;9.43;60.92;98970.44;7042432;28;20276;-84
2022/12/02 04:51:42;;;;;;;30.70;19.33;;;;;;;9.83;60.70;98993.13;7046366;28;20204;-85
2022/12/02 04:55:05;;;;;;;37.97;21.47;;;;;;;9.46;61.26;98996.94;7045904;28;20211;-84
2022/12/02 04:58:28;;;;;;;36.27;21.13;;;;;;;9.53;61.11;98968.25;7045099;28;20227;-84
2022/12/02 05:01:50;;;;;;;32.43;20.20;;;;;;;9.74;60.67;98975.47;7028343;28;20684;-84
2022/12/02 05:05:12;;;;;;;35.97;20.27;;;;;;;9.71;59.79;98965.91;7016221;28;20565;-84
2022/12/02 05:08:34;;;;;;;30.37;19.00;;;;;;;9.71;60.33;98997.38;6990252;28;20519;-85
2022/12/02 05:12:13;;;;;;;33.03;19.67;;;;;;;9.76;60.55;98984.16;6988787;28;20445;-84
2022/12/02 05:15:48;;;;;;;30.90;19.33;;;;;;;9.88;60.41;98982.59;6987034;28;20250;-84
2022/12/02 05:19:15;;;;;;;34.30;20.63;;;;;;;9.68;60.70;98989.69;7003708;28;20225;-84
2022/12/02 05:22:43;;;;;;;35.90;20.57;;;;;;;9.75;60.88;98990.56;6993549;28;20272;-85
2022/12/02 05:26:06;;;;;;;35.20;20.83;;;;;;;9.98;60.50;98988.47;7014655;28;20221;-84
2022/12/02 05:29:27;;;;;;;33.13;19.30;;;;;;;9.71;60.78;98967.75;7015530;28;20228;-85
2022/12/02 05:32:51;;;;;;;35.83;20.57;;;;;;;9.76;60.86;98989.53;6994926;28;20588;-84
2022/12/02 05:36:13;;;;;;;36.63;21.50;;;;;;;10.09;59.94;98986.09;7002036;28;20215;-83
2022/12/02 05:39:34;;;;;;;31.23;19.03;;;;;;;9.90;59.88;98980.53;7043156;28;20231;-84
2022/12/02 05:42:57;;;;;;;36.50;21.73;;;;;;;9.96;60.60;98985.97;7041454;28;20206;-84
2022/12/02 05:46:20;;;;;;;38.37;21.70;;;;;;;9.20;60.53;98890.94;7038955;28;20215;-84
2022/12/02 05:49:45;;;;;;;38.27;22.77;;;;;;;9.36;61.24;98950.72;6994505;28;20229;-84
2022/12/02 05:53:43;;;;;;;41.17;24.23;;;;;;;9.64;61.08;98985.72;7015436;28;20213;-86
2022/12/02 05:57:10;;;;;;;39.17;22.83;;;;;;;9.80;60.98;98969.28;7015091;28;20319;-87
2022/12/02 06:00:32;;;;;;;36.03;21.67;;;;;;;9.46;61.07;98956.56;7041253;28;20690;-86
2022/12/02 06:03:54;;;;;;;34.97;19.37;;;;;;;9.52;61.53;98979.19;7044232;28;20203;-86
2022/12/02 06:07:17;;;;;;;36.50;20.40;;;;;;;9.60;61.22;98979.06;7027871;28;20242;-87
2022/12/02 06:10:38;;;;;;;33.33;20.37;;;;;;;9.87;60.48;98975.53;6985427;28;20243;-86
2022/12/02 06:14:03;;;;;;;32.83;19.53;;;;;;;9.65;60.68;98987.38;7001692;28;20229;-86
2022/12/02 06:17:24;;;;;;;35.33;19.93;;;;;;;9.60;60.89;98949.44;7004667;28;20236;-88
2022/12/02 06:20:48;;;;;;;37.57;21.40;;;;;;;9.62;61.26;98982.41;6995740;28;20200;-88
2022/12/02 06:24:11;;;;;;;38.03;20.67;;;;;;;9.64;61.27;98962.31;6998806;28;20203;-89
2022/12/02 06:27:33;;;;;;;37.03;20.93;;;;;;;9.70;61.09;98964.22;6984729;28;20233;-89
2022/12/02 06:30:56;;;;;;;31.37;19.17;;;;;;;9.89;61.18;98949.25;6984965;28;20241;-88
2022/12/02 06:38:22;;;;;;;38.67;21.50;;;;;;;9.51;61.48;98966.78;7005016;28;20220;-85
2022/12/02 06:41:45;;;;;;;36.67;20.57;;;;;;;10.02;61.95;98958.25;6994095;28;20676;-84
2022/12/02 06:45:19;;;;;;;37.10;20.57;;;;;;;9.56;61.40;98935.53;7007841;28;20210;-82
2022/12/02 06:48:40;;;;;;;39.23;21.90;;;;;;;9.90;60.92;98969.75;7008520;28;20255;-85
2022/12/02 06:52:15;;;;;;;43.40;23.17;;;;;;;9.90;61.14;98962.53;7007851;28;20201;-84
2022/12/02 06:55:38;;;;;;;41.87;24.10;;;;;;;9.70;60.93;98955.31;7006394;28;20212;-84
2022/12/02 06:59:03;;;;;;;41.17;23.43;;;;;;;9.58;61.67;98951.50;7008381;28;20223;-86
2022/12/02 07:02:27;;;;;;;38.83;22.57;;;;;;;9.54;61.88;98969.06;7009384;28;20238;-84
2022/12/02 07:05:49;;;;;;;45.93;24.37;;;;;;;9.76;61.48;98963.47;6984576;28;20208;-86
2022/12/02 07:09:14;;;;;;;41.70;23.27;;;;;;;9.44;61.68;98936.25;6981243;28;20285;-86
2022/12/02 07:12:37;;;;;;;45.73;22.93;;;;;;;9.68;61.78;98965.47;6981988;28;20217;-85
2022/12/02 07:16:00;;;;;;;42.53;23.20;;;;;;;9.61;61.71;98978.88;7005833;28;20259;-87
2022/12/02 07:19:24;;;;;;;40.37;23.27;;;;;;;9.67;61.91;98951.16;7008247;28;20648;-86
2022/12/02 07:22:47;;;;;;;46.73;23.97;;;;;;;9.65;61.93;98941.63;7011216;28;20204;-85
2022/12/02 07:26:09;;;;;;;39.93;22.80;;;;;;;9.97;61.31;98962.53;6998608;28;20270;-85
2022/12/02 07:29:33;;;;;;;37.90;22.93;;;;;;;9.56;61.75;98945.50;6997956;28;20250;-83
2022/12/02 07:32:57;;;;;;;42.67;23.50;;;;;;;9.83;61.54;98976.97;7008452;28;20221;-83
2022/12/02 07:36:18;;;;;;;43.53;24.23;;;;;;;9.79;61.94;98964.91;6981613;28;20567;-83
2022/12/02 07:39:40;;;;;;;43.03;25.17;;;;;;;9.95;61.68;98972.69;6998948;28;20304;-83
2022/12/02 07:43:02;;;;;;;41.80;23.53;;;;;;;9.95;61.06;98970.00;7005497;28;20289;-83
2022/12/02 07:46:23;;;;;;;44.17;24.67;;;;;;;9.89;61.23;98957.31;7001207;28;20201;-83
2022/12/02 07:49:46;;;;;;;39.77;23.83;;;;;;;9.86;61.18;98944.28;6997148;28;20239;-83
2022/12/02 07:53:08;;;;;;;43.87;23.77;;;;;;;9.43;62.11;98969.59;6998433;28;20207;-83
2022/12/02 07:56:30;;;;;;;46.20;23.97;;;;;;;9.15;62.77;98912.25;6980407;28;20294;-83
2022/12/02 07:59:51;;;;;;;41.80;23.03;;;;;;;9.38;62.84;98972.88;6982413;28;20252;-83
2022/12/02 08:03:13;;;;;;;48.40;25.23;;;;;;;9.40;63.39;98964.59;7002055;28;20208;-83
2022/12/02 08:06:36;;;;;;;54.27;25.90;;;;;;;9.17;62.90;98900.22;7007127;28;20208;-83
2022/12/02 08:09:57;;;;;;;46.57;24.87;;;;;;;9.51;63.31;98956.00;7008675;28;20711;-83
2022/12/02 08:13:19;;;;;;;54.27;26.00;;;;;;;9.66;63.12;98964.81;7005429;28;20723;-83
2022/12/02 08:16:41;;;;;;;52.40;25.93;;;;;;;9.62;63.43;98959.00;6979486;28;20206;-83
2022/12/02 08:20:03;;;;;;;51.60;26.87;;;;;;;9.87;62.83;98964.78;6979719;28;20332;-83
2022/12/02 08:23:25;;;;;;;45.83;25.93;;;;;;;9.76;62.65;98959.94;6990695;28;20221;-83
2022/12/02 08:26:47;;;;;;;48.50;27.07;;;;;;;9.85;62.07;98959.56;7005975;28;20216;-83
2022/12/02 08:30:11;;;;;;;44.43;25.23;;;;;;;9.71;62.35;98957.00;7000371;28;20312;-83
2022/12/02 08:33:32;;;;;;;58.10;28.63;;;;;;;9.81;62.26;98954.78;6992195;28;20208;-82
2022/12/02 08:36:54;;;;;;;49.43;26.83;;;;;;;9.89;62.80;98963.56;7013504;28;20231;-83
2022/12/02 08:40:17;;;;;;;44.13;26.00;;;;;;;9.92;62.32;98965.03;7008157;28;20214;-83
2022/12/02 08:43:39;;;;;;;48.00;26.40;;;;;;;10.02;61.67;98954.72;7006629;28;20219;-83
2022/12/02 08:47:00;;;;;;;41.77;25.07;;;;;;;9.82;62.16;98929.53;7005919;28;20725;-80
2022/12/02 08:50:22;;;;;;;41.50;23.37;;;;;;;9.97;62.00;98952.63;6999458;28;20230;-84
2022/12/02 08:53:50;;;;;;;38.77;22.80;;;;;;;10.14;62.08;98947.75;7002718;28;20201;-84
2022/12/02 08:57:13;;;;;;;39.67;23.77;;;;;;;9.87;62.29;98943.22;6991353;28;20309;-84
2022/12/02 09:00:34;;;;;;;39.03;22.23;;;;;;;9.67;62.64;98934.16;6988664;28;20205;-83
2022/12/02 09:03:56;;;;;;;41.83;21.97;;;;;;;9.98;62.30;98956.16;7006997;28;20204;-84
2022/12/02 09:07:17;;;;;;;40.53;22.40;;;;;;;10.17;62.31;98950.88;7006416;28;20274;-83
2022/12/02 09:10:39;;;;;;;35.67;20.97;;;;;;;10.06;62.28;98948.78;7006615;28;20254;-84
2022/12/02 09:14:02;;;;;;;37.97;20.87;;;;;;;9.97;62.06;98943.69;7012085;28;20276;-84
2022/12/02 09:17:23;;;;;;;38.40;20.97;;;;;;;9.69;63.07;98946.41;7012413;28;20274;-84
2022/12/02 09:20:45;;;;;;;33.37;21.07;;;;;;;9.70;62.44;98937.28;7006920;28;20683;-84
2022/12/02 09:24:07;;;;;;;31.37;21.03;;;;;;;9.56;62.53;98948.19;7009672;28;20275;-83
2022/12/02 09:27:29;;;;;;;29.00;19.60;;;;;;;9.66;62.83;98941.44;7011221;28;20228;-84
2022/12/02 09:30:52;;;;;;;57.83;35.33;;;;;;;9.91;62.66;98950.72;7000751;28;20204;-83
2022/12/02 09:34:13;;;;;;;73.77;52.67;;;;;;;9.71;62.73;98944.38;7012038;28;20212;-83
2022/12/02 09:37:35;;;;;;;34.90;23.97;;;;;;;9.81;63.04;98922.47;6988781;28;20719;-86
2022/12/02 09:40:57;;;;;;;31.77;19.00;;;;;;;9.65;62.77;98939.78;6986355;28;20298;-83
2022/12/02 09:44:21;;;;;;;29.60;19.00;;;;;;;9.79;62.30;98922.66;6986425;28;20246;-83
2022/12/02 09:47:44;;;;;;;38.23;24.97;;;;;;;10.28;62.23;98936.03;6986324;28;20236;-83
2022/12/02 09:51:06;;;;;;;37.30;21.77;;;;;;;9.96;62.55;98931.25;6986100;28;20217;-85
2022/12/02 09:54:28;;;;;;;57.60;39.57;;;;;;;9.85;62.28;98896.78;7003924;28;20217;-85
2022/12/02 09:57:50;;;;;;;41.60;28.47;;;;;;;9.91;62.42;98926.47;6983968;28;20226;-84
2022/12/02 10:01:16;;;;;;;35.93;21.43;;;;;;;9.93;62.28;98900.16;7009207;28;20750;-84
2022/12/02 10:04:39;;;;;;;30.87;19.97;;;;;;;9.98;62.36;98894.19;6996278;28;20193;-84
2022/12/02 10:08:01;;;;;;;30.67;20.23;;;;;;;9.98;62.43;98903.09;6988667;28;20236;-84
2022/12/02 10:11:26;;;;;;;32.57;21.03;;;;;;;9.99;62.27;98915.53;7003166;28;20254;-85
2022/12/02 10:14:49;;;;;;;44.37;29.20;;;;;;;10.24;61.98;98913.22;7019654;28;20235;-85
2022/12/02 10:18:14;;;;;;;31.57;20.40;;;;;;;10.36;61.73;98919.69;7011139;28;20223;-85
2022/12/02 10:21:37;;;;;;;32.87;22.60;;;;;;;9.80;62.39;98872.34;7000675;28;20573;-82
2022/12/02 10:24:58;;;;;;;33.00;20.83;;;;;;;10.01;62.24;98916.19;6995618;28;20201;-82
2022/12/02 10:28:23;;;;;;;35.60;19.80;;;;;;;9.79;62.29;98911.06;6984566;28;20740;-82
2022/12/02 10:31:56;;;;;;;29.13;17.80;;;;;;;9.71;62.72;98889.69;7011525;28;20225;-82
2022/12/02 10:35:18;;;;;;;40.23;26.07;;;;;;;10.00;62.61;98909.13;7011761;28;20265;-82
2022/12/02 10:38:42;;;;;;;28.40;17.53;;;;;;;9.82;62.55;98897.22;6996536;28;20217;-81
2022/12/02 10:42:16;;;;;;;29.43;18.73;;;;;;;9.85;63.05;98892.25;7010193;28;20208;-82
2022/12/02 10:45:37;;;;;;;32.73;21.17;;;;;;;9.64;63.65;98889.63;6984655;28;20204;-85
2022/12/02 10:49:28;;;;;;;39.10;28.17;;;;;;;10.11;63.15;98881.63;6985084;28;20214;-85
2022/12/02 10:52:51;;;;;;;28.77;16.87;;;;;;;9.89;62.38;98888.16;6982975;28;20238;-84
2022/12/02 10:56:16;;;;;;;26.80;17.30;;;;;;;9.78;63.20;98850.16;7007832;28;20205;-85
2022/12/02 10:59:38;;;;;;;25.00;16.33;;;;;;;9.76;63.45;98873.78;7000711;28;20224;-85
2022/12/02 11:03:00;;;;;;;29.77;18.17;;;;;;;9.72;63.65;98873.34;7008127;28;20225;-84
2022/12/02 11:06:30;;;;;;;22.70;16.37;;;;;;;9.79;63.34;98886.81;7008735;28;20200;-82
2022/12/02 11:09:54;;;;;;;70.20;45.70;;;;;;;9.84;63.17;98871.75;7010226;28;20317;-82
2022/12/02 11:13:49;;;;;;;57.37;37.03;;;;;;;9.84;63.15;98862.81;7010484;28;20213;-82
2022/12/02 11:17:12;;;;;;;85.10;38.30;;;;;;;9.83;63.01;98867.41;6954469;28;20728;-84
2022/12/02 11:20:39;;;;;;;24.37;14.27;;;;;;;9.95;62.54;98856.88;6980148;28;20225;-84
2022/12/02 11:24:35;;;;;;;22.07;15.80;;;;;;;9.87;62.99;98854.38;6981647;28;20296;-82
2022/12/02 11:28:13;;;;;;;15.20;10.07;;;;;;;9.97;63.01;98857.50;6983111;28;20233;-82
2022/12/02 11:31:36;;;;;;;13.73;9.80;;;;;;;10.19;62.78;98846.47;6983373;28;20232;-82
2022/12/02 11:34:59;;;;;;;25.47;16.93;;;;;;;9.94;62.17;98850.69;6987121;28;20214;-84
2022/12/02 11:38:27;;;;;;;13.47;9.43;;;;;;;9.97;62.17;98846.72;6980717;28;20249;-84
2022/12/02 11:42:19;;;;;;;10.27;8.10;;;;;;;9.72;61.82;98849.09;6981524;28;20221;-83
2022/12/02 11:45:56;;;;;;;12.53;8.90;;;;;;;9.76;62.43;98839.63;7000296;28;20240;-83
2022/12/02 11:49:38;;;;;;;12.47;10.20;;;;;;;10.03;61.57;98821.72;7005408;28;20249;-84
2022/12/02 11:53:02;;;;;;;21.23;18.07;;;;;;;9.61;62.87;98830.81;7010025;28;20207;-84
2022/12/02 11:56:27;;;;;;;16.67;11.93;;;;;;;9.72;62.67;98826.72;7009514;28;20613;-83
2022/12/02 11:59:49;;;;;;;15.10;10.90;;;;;;;9.75;62.62;98810.19;7020893;28;20247;-83
2022/12/02 12:03:14;;;;;;;17.47;13.70;;;;;;;9.82;62.71;98814.59;7036186;28;20232;-84
2022/12/02 12:06:53;;;;;;;16.00;12.80;;;;;;;10.17;61.84;98820.75;7033989;28;20238;-83
2022/12/02 12:10:26;;;;;;;16.30;10.97;;;;;;;9.94;61.69;98828.28;7034778;28;20224;-83
2022/12/02 12:14:05;;;;;;;15.40;10.77;;;;;;;9.77;62.82;98798.19;7035326;28;20219;-84
2022/12/02 12:17:33;;;;;;;15.40;11.67;;;;;;;9.94;62.72;98821.06;7035764;28;20231;-84
2022/12/02 12:20:55;;;;;;;14.40;10.67;;;;;;;9.62;61.80;98762.50;7034104;28;20228;-84
2022/12/02 12:24:42;;;;;;;14.43;10.97;;;;;;;9.90;62.18;98822.47;7035951;28;20204;-86
2022/12/02 12:28:04;;;;;;;15.33;11.83;;;;;;;9.84;62.06;98766.72;7010083;28;20747;-84
2022/12/02 12:31:25;;;;;;;13.10;9.27;;;;;;;10.14;62.24;98818.44;7033551;28;20219;-84
2022/12/02 12:34:47;;;;;;;38.63;21.33;;;;;;;9.67;62.41;98786.94;7034432;28;20210;-84
2022/12/02 12:38:08;;;;;;;23.63;16.57;;;;;;;9.73;62.23;98794.22;7035632;28;20237;-84
2022/12/02 12:41:31;;;;;;;22.23;15.33;;;;;;;10.02;61.52;98806.56;7034810;28;20210;-81
2022/12/02 12:44:53;;;;;;;51.37;32.53;;;;;;;9.73;62.29;98804.16;7011756;28;20267;-83
2022/12/02 12:48:14;;;;;;;31.27;21.10;;;;;;;9.95;61.96;98801.16;6981152;28;20284;-82
2022/12/02 12:51:36;;;;;;;31.03;21.97;;;;;;;10.02;61.45;98796.63;6982444;28;20691;-83
2022/12/02 12:54:57;;;;;;;17.17;13.20;;;;;;;10.12;61.68;98790.91;6983366;28;20286;-82
2022/12/02 12:58:20;;;;;;;10.20;8.30;;;;;;;9.76;61.81;98790.31;6983854;28;20630;-83
2022/12/02 13:01:43;;;;;;;12.37;9.60;;;;;;;10.02;61.28;98802.03;6983728;28;20759;-82
2022/12/02 13:05:05;;;;;;;13.53;8.80;;;;;;;9.93;61.53;98792.44;6982906;28;20213;-83
2022/12/02 13:08:27;;;;;;;8.07;7.00;;;;;;;9.85;61.39;98789.94;6984427;28;20271;-83
2022/12/02 13:11:49;;;;;;;8.77;7.23;;;;;;;9.96;60.96;98791.22;6983985;28;20217;-83
2022/12/02 13:15:12;;;;;;;6.73;6.03;;;;;;;10.08;60.96;98798.56;7010625;28;20212;-82
2022/12/02 13:18:33;;;;;;;11.00;8.47;;;;;;;9.86;61.87;98793.47;7039341;28;20225;-82
2022/12/02 13:21:55;;;;;;;11.53;9.13;;;;;;;9.74;61.84;98781.63;7038989;28;20672;-83
2022/12/02 13:25:16;;;;;;;11.73;10.53;;;;;;;9.63;62.08;98791.06;6998093;28;20277;-82
2022/12/02 13:28:38;;;;;;;10.63;9.53;;;;;;;9.78;61.42;98794.47;6982927;28;20229;-82
2022/12/02 13:32:01;;;;;;;9.40;7.77;;;;;;;9.56;61.68;98755.22;6982450;28;20208;-82
2022/12/02 13:35:24;;;;;;;12.03;9.90;;;;;;;9.78;61.74;98762.16;6983251;28;20265;-82
2022/12/02 13:38:45;;;;;;;12.13;8.80;;;;;;;9.62;63.17;98775.13;6983279;28;20236;-82
2022/12/02 13:42:07;;;;;;;11.70;9.00;;;;;;;9.61;62.61;98790.44;6983031;28;20243;-82
2022/12/02 13:45:29;;;;;;;12.60;9.67;;;;;;;9.57;62.70;98764.13;6982552;28;20256;-82
2022/12/02 13:48:52;;;;;;;13.30;10.23;;;;;;;9.88;62.75;98794.94;6982358;28;20305;-82
2022/12/02 13:52:13;;;;;;;23.77;21.27;;;;;;;9.73;62.72;98796.06;6983242;28;20740;-82
2022/12/02 13:55:35;;;;;;;17.30;13.67;;;;;;;9.85;62.94;98798.00;6983214;28;20289;-82
2022/12/02 13:58:56;;;;;;;13.57;9.97;;;;;;;9.54;63.00;98802.19;6988123;28;20256;-82
2022/12/02 14:02:18;;;;;;;15.57;12.93;;;;;;;9.59;63.10;98799.75;7037646;28;20219;-82
2022/12/02 14:05:41;;;;;;;14.00;12.10;;;;;;;9.55;63.08;98767.00;7038568;28;20556;-82
2022/12/02 14:09:03;;;;;;;14.33;10.00;;;;;;;9.72;62.29;98789.03;7038096;28;20258;-82
2022/12/02 14:12:25;;;;;;;13.33;10.60;;;;;;;9.73;61.96;98796.06;7037889;28;20220;-82
2022/12/02 14:15:46;;;;;;;17.77;14.37;;;;;;;9.79;62.63;98797.97;7032473;28;20684;-82
2022/12/02 14:19:08;;;;;;;16.80;11.53;;;;;;;9.08;62.55;98693.47;7004532;28;20227;-82
2022/12/02 14:22:30;;;;;;;10.33;8.93;;;;;;;9.40;62.79;98795.09;7007810;28;20286;-82
2022/12/02 14:25:52;;;;;;;14.10;9.93;;;;;;;9.74;62.06;98771.66;7007309;28;20206;-82
2022/12/02 14:29:13;;;;;;;11.17;8.67;;;;;;;9.67;62.33;98792.34;7007526;28;20319;-81
2022/12/02 14:32:36;;;;;;;10.40;8.57;;;;;;;9.54;62.12;98794.13;7009109;28;20215;-82
2022/12/02 14:35:58;;;;;;;10.10;8.03;;;;;;;9.70;61.97;98797.31;6991899;28;20213;-82
2022/12/02 14:39:21;;;;;;;13.77;9.17;;;;;;;9.23;62.78;98791.88;6981370;28;20717;-82
2022/12/02 14:42:42;;;;;;;11.10;8.07;;;;;;;9.08;62.78;98764.25;6981067;28;20297;-82
2022/12/02 14:46:04;;;;;;;10.60;8.33;;;;;;;9.58;62.47;98790.00;6979953;28;20213;-82
2022/12/02 14:49:25;;;;;;;9.67;8.17;;;;;;;9.52;62.21;98771.97;6981176;28;20264;-81
2022/12/02 14:52:47;;;;;;;10.53;8.37;;;;;;;9.72;61.46;98786.34;6993376;28;20264;-81
2022/12/02 14:56:10;;;;;;;13.40;10.10;;;;;;;9.68;61.47;98790.50;7007807;28;20211;-82
2022/12/02 14:59:31;;;;;;;57.47;32.23;;;;;;;9.50;61.58;98765.97;7001071;28;20279;-81
2022/12/02 15:02:53;;;;;;;15.00;11.00;;;;;;;9.47;62.28;98801.34;6977607;28;20205;-82
2022/12/02 15:06:14;;;;;;;11.37;9.27;;;;;;;9.18;62.40;98780.03;6976319;28;20256;-82
2022/12/02 15:09:36;;;;;;;10.23;8.03;;;;;;;9.17;62.58;98773.00;6977471;28;20320;-82
2022/12/02 15:12:59;;;;;;;18.20;16.30;;;;;;;9.70;62.22;98794.59;6979464;28;20236;-81
2022/12/02 15:16:20;;;;;;;11.53;8.37;;;;;;;9.32;62.25;98797.91;6979126;28;20208;-81
2022/12/02 15:19:42;;;;;;;15.77;11.53;;;;;;;9.67;61.76;98795.03;6979823;28;20237;-82
2022/12/02 15:23:03;;;;;;;11.50;9.30;;;;;;;9.14;63.01;98806.50;6979414;28;20232;-81
2022/12/02 15:26:25;;;;;;;13.77;9.87;;;;;;;9.52;62.13;98801.56;6979639;28;20308;-81
2022/12/02 15:29:48;;;;;;;34.70;22.43;;;;;;;9.66;62.18;98793.38;6988380;28;20280;-82
2022/12/02 15:33:09;;;;;;;54.23;34.83;;;;;;;9.38;62.10;98803.34;7007725;28;20690;-82
2022/12/02 15:36:31;;;;;;;22.23;16.83;;;;;;;9.14;62.78;98733.03;7006160;28;20625;-82
2022/12/02 15:39:52;;;;;;;15.27;11.13;;;;;;;9.46;62.93;98807.75;7006830;28;20212;-82
2022/12/02 15:43:14;;;;;;;15.47;11.23;;;;;;;9.37;62.70;98808.91;7006055;28;20613;-81
2022/12/02 15:46:37;;;;;;;17.07;11.97;;;;;;;9.58;62.88;98812.34;6982104;28;20222;-81
2022/12/02 15:49:59;;;;;;;36.37;25.03;;;;;;;9.55;62.42;98804.69;6976647;28;20234;-81
2022/12/02 15:53:20;;;;;;;17.87;12.57;;;;;;;9.33;62.88;98772.69;6976822;28;20216;-81
2022/12/02 15:56:42;;;;;;;23.83;15.37;;;;;;;9.39;62.78;98809.56;6976539;28;20290;-82